Time;durP1;ratioP1;P1;durP2;ratioP2;P2;SDS_P1;SDS_P2;PMS_P1;PMS_P2;Temp;Humidity;BMP_temperature;BMP_pressure;BME280_temperature;BME280_humidity;BME280_pressure;Samples;Min_cycle;Max_cycle;Signal;HPM_P1;HPM_P2
2022/03/12 00:01:09;;;;;;;5.60;5.10;;;9.30;91.40;;;;;;5063754;28;21001;-50
2022/03/12 00:03:37;;;;;;;9.60;4.93;;;9.30;91.60;;;;;;5070182;28;20441;-47
2022/03/12 00:06:06;;;;;;;5.43;4.90;;;9.30;91.60;;;;;;5064974;28;20505;-51
2022/03/12 00:08:41;;;;;;;6.70;5.47;;;9.40;91.50;;;;;;5070199;28;20429;-48
2022/03/12 00:11:11;;;;;;;5.95;5.35;;;9.30;91.10;;;;;;5069265;28;20491;-46
2022/03/12 00:13:41;;;;;;;5.50;5.00;;;9.30;90.80;;;;;;5070179;28;20829;-48
2022/03/12 00:16:12;;;;;;;9.18;5.93;;;9.30;90.50;;;;;;5064796;28;20531;-47
2022/03/12 00:18:42;;;;;;;6.70;6.00;;;9.40;90.60;;;;;;5069477;28;20196;-48
2022/03/12 00:21:13;;;;;;;6.18;5.55;;;9.40;90.10;;;;;;5068988;28;20473;-47
2022/03/12 00:23:49;;;;;;;6.63;5.93;;;9.30;90.80;;;;;;5074217;28;20206;-47
2022/03/12 00:26:17;;;;;;;7.50;5.75;;;9.30;90.10;;;;;;5072224;28;20801;-47
2022/03/12 00:28:50;;;;;;;9.68;6.70;;;9.30;90.10;;;;;;5074224;28;20187;-50
2022/03/12 00:31:18;;;;;;;7.37;6.60;;;9.30;89.20;;;;;;5064430;28;20735;-45
2022/03/12 00:33:46;;;;;;;6.93;6.33;;;9.30;89.60;;;;;;5073258;28;20433;-47
2022/03/12 00:36:16;;;;;;;6.55;5.68;;;9.30;89.60;;;;;;5065466;28;20551;-47
2022/03/12 00:38:45;;;;;;;6.80;6.10;;;9.30;88.70;;;;;;5070390;28;20191;-46
2022/03/12 00:41:14;;;;;;;7.35;6.53;;;9.40;88.50;;;;;;5072672;28;20532;-47
2022/03/12 00:43:42;;;;;;;8.37;6.70;;;9.30;88.00;;;;;;5072978;28;20278;-48
2022/03/12 00:46:12;;;;;;;6.77;6.07;;;9.30;87.40;;;;;;5067285;28;20477;-49
2022/03/12 00:48:40;;;;;;;10.13;6.30;;;9.30;87.10;;;;;;5072299;28;20465;-49
2022/03/12 00:51:10;;;;;;;6.67;5.97;;;9.30;87.80;;;;;;5065873;28;20484;-48
2022/03/12 00:53:39;;;;;;;8.80;6.67;;;9.30;87.20;;;;;;5071665;28;21052;-48
2022/03/12 00:56:08;;;;;;;5.50;4.90;;;9.30;87.30;;;;;;5071623;28;20899;-48
2022/03/12 00:58:37;;;;;;;7.33;5.80;;;9.30;88.60;;;;;;5072137;28;20461;-49
2022/03/12 01:01:06;;;;;;;5.22;4.72;;;9.30;88.60;;;;;;5071772;28;20458;-49
2022/03/12 01:03:36;;;;;;;6.50;4.60;;;9.30;90.00;;;;;;5064308;28;20188;-48
2022/03/12 01:06:05;;;;;;;5.70;4.93;;;9.30;90.10;;;;;;5054064;28;20512;-47
2022/03/12 01:08:35;;;;;;;4.77;4.23;;;9.40;90.10;;;;;;5053207;28;20192;-48
2022/03/12 01:11:06;;;;;;;4.87;4.47;;;9.30;90.50;;;;;;5053214;28;20534;-47
2022/03/12 01:13:34;;;;;;;5.80;5.00;;;9.30;90.60;;;;;;5072989;28;20513;-47
2022/03/12 01:16:02;;;;;;;7.30;5.47;;;9.30;90.80;;;;;;5066236;28;20842;-49
2022/03/12 01:18:30;;;;;;;5.27;4.60;;;9.30;90.40;;;;;;5072838;28;20427;-47
2022/03/12 01:21:10;;;;;;;5.85;5.22;;;9.40;90.80;;;;;;5066270;28;20470;-48
2022/03/12 01:23:38;;;;;;;8.50;5.70;;;9.30;90.50;;;;;;5072735;28;20706;-47
2022/03/12 01:26:06;;;;;;;6.67;5.63;;;9.30;90.60;;;;;;5071871;28;20216;-49
2022/03/12 01:28:35;;;;;;;6.90;5.88;;;9.30;90.50;;;;;;5070361;28;20445;-50
2022/03/12 01:31:03;;;;;;;6.70;6.00;;;9.30;90.20;;;;;;5070983;28;20215;-46
2022/03/12 01:33:31;;;;;;;6.30;5.70;;;9.30;90.00;;;;;;5072456;28;20458;-48
2022/03/12 01:36:01;;;;;;;6.37;5.70;;;9.30;89.30;;;;;;5065631;28;20909;-49
2022/03/12 01:38:35;;;;;;;7.37;5.60;;;9.30;89.70;;;;;;5063812;28;20785;-47
2022/03/12 01:41:03;;;;;;;6.13;5.55;;;9.30;89.00;;;;;;5071853;28;21108;-48
2022/03/12 01:43:32;;;;;;;7.88;6.88;;;9.30;88.60;;;;;;5071765;28;20243;-48
2022/03/12 01:46:01;;;;;;;8.67;6.37;;;9.30;89.10;;;;;;5058356;28;20235;-47
2022/03/12 01:48:30;;;;;;;8.63;5.10;;;9.30;87.80;;;;;;5072065;28;20440;-50
2022/03/12 01:51:01;;;;;;;6.43;5.70;;;9.30;88.40;;;;;;5066722;28;20473;-47
2022/03/12 01:53:29;;;;;;;6.50;5.93;;;9.30;88.40;;;;;;5072086;28;20467;-47
2022/03/12 01:55:57;;;;;;;7.00;5.57;;;9.30;88.20;;;;;;5071194;28;20465;-47
2022/03/12 01:58:26;;;;;;;10.43;5.87;;;9.30;87.30;;;;;;5052070;28;20775;-48
2022/03/12 02:00:57;;;;;;;6.67;5.77;;;9.30;87.30;;;;;;5053321;28;20901;-47
2022/03/12 02:03:29;;;;;;;6.87;6.07;;;9.30;88.10;;;;;;5053966;28;20527;-47
2022/03/12 02:05:57;;;;;;;5.90;5.10;;;9.30;88.20;;;;;;5070047;28;20475;-48
2022/03/12 02:08:29;;;;;;;7.83;6.10;;;9.30;88.50;;;;;;5072083;28;20445;-48
2022/03/12 02:10:57;;;;;;;6.83;5.83;;;9.30;87.00;;;;;;5072120;28;20454;-47
2022/03/12 02:13:28;;;;;;;6.00;5.40;;;9.30;87.60;;;;;;5071691;28;20457;-49
2022/03/12 02:16:07;;;;;;;9.43;6.17;;;9.30;88.00;;;;;;5054551;28;21000;-48
2022/03/12 02:18:36;;;;;;;7.90;6.27;;;9.30;87.60;;;;;;5066640;28;20442;-49
2022/03/12 02:21:04;;;;;;;5.95;5.43;;;9.30;88.30;;;;;;5064976;28;20563;-47
2022/03/12 02:23:46;;;;;;;7.27;6.00;;;9.30;89.90;;;;;;5070644;28;20204;-47
2022/03/12 02:26:14;;;;;;;5.53;5.03;;;9.30;87.80;;;;;;5070446;28;20502;-49
2022/03/12 02:28:42;;;;;;;5.88;5.25;;;9.30;88.50;;;;;;5054044;28;20471;-49
2022/03/12 02:31:11;;;;;;;7.40;5.20;;;9.30;87.10;;;;;;5068909;28;20215;-49
2022/03/12 02:33:39;;;;;;;8.13;6.57;;;9.30;89.30;;;;;;5071469;28;20188;-48
2022/03/12 02:36:12;;;;;;;6.35;5.72;;;9.30;87.40;;;;;;5064707;28;20483;-46
2022/03/12 02:38:42;;;;;;;7.35;5.65;;;9.30;88.00;;;;;;5071619;28;20202;-47
2022/03/12 02:41:13;;;;;;;8.60;7.60;;;9.30;87.80;;;;;;5071082;28;20227;-48
2022/03/12 02:43:43;;;;;;;5.10;4.60;;;9.30;88.00;;;;;;5071124;28;20508;-48
2022/03/12 02:46:14;;;;;;;6.33;5.17;;;9.30;90.00;;;;;;5067922;28;20225;-49
2022/03/12 02:48:48;;;;;;;6.27;5.43;;;9.30;90.50;;;;;;5070633;28;21191;-48
2022/03/12 02:51:16;;;;;;;7.50;6.63;;;9.30;90.10;;;;;;5066315;28;20470;-48
2022/03/12 02:53:45;;;;;;;6.30;5.50;;;9.30;87.30;;;;;;5071215;28;20437;-49
2022/03/12 02:56:14;;;;;;;8.07;6.22;;;9.30;88.10;;;;;;5070372;28;20477;-49
2022/03/12 02:58:42;;;;;;;7.23;5.97;;;9.30;87.80;;;;;;5070172;28;20194;-49
2022/03/12 03:01:14;;;;;;;7.17;5.90;;;9.30;87.50;;;;;;5057472;28;20466;-48
2022/03/12 03:03:43;;;;;;;8.98;6.45;;;9.30;87.80;;;;;;5070515;28;20464;-45
2022/03/12 03:06:13;;;;;;;6.72;5.80;;;9.30;87.20;;;;;;5062782;28;20217;-48
2022/03/12 03:08:42;;;;;;;7.22;5.70;;;9.30;87.40;;;;;;5065377;28;20204;-49
2022/03/12 03:11:13;;;;;;;8.43;7.40;;;9.30;87.60;;;;;;5070090;28;20623;-48
2022/03/12 03:13:44;;;;;;;6.55;5.95;;;9.30;88.10;;;;;;5069892;28;20434;-49
2022/03/12 03:16:21;;;;;;;6.40;5.67;;;9.30;88.30;;;;;;5055786;28;20222;-48
2022/03/12 03:18:53;;;;;;;6.50;5.90;;;9.30;89.30;;;;;;5044171;28;20432;-49
2022/03/12 03:21:25;;;;;;;7.63;6.83;;;9.20;88.50;;;;;;5068183;28;20229;-49
2022/03/12 03:23:54;;;;;;;7.15;6.25;;;9.20;88.90;;;;;;5071675;28;20821;-51
2022/03/12 03:26:45;;;;;;;7.80;5.50;;;9.30;88.70;;;;;;5070161;28;20232;-48
2022/03/12 03:29:16;;;;;;;6.83;6.10;;;9.30;90.00;;;;;;5065753;28;20609;-47
2022/03/12 03:31:44;;;;;;;6.40;5.43;;;9.30;88.70;;;;;;5065129;28;20468;-47
2022/03/12 03:34:12;;;;;;;8.07;6.63;;;9.20;89.00;;;;;;5070272;28;20229;-47
2022/03/12 03:36:41;;;;;;;7.33;5.70;;;9.30;89.30;;;;;;5059382;28;20500;-49
2022/03/12 03:39:09;;;;;;;8.57;6.40;;;9.30;90.00;;;;;;5068389;28;20434;-47
2022/03/12 03:41:37;;;;;;;8.02;6.18;;;9.30;90.00;;;;;;5071249;28;20307;-48
2022/03/12 03:44:06;;;;;;;8.17;5.63;;;9.30;89.40;;;;;;5070619;28;20226;-48
2022/03/12 03:46:36;;;;;;;6.47;5.87;;;9.30;89.90;;;;;;5047974;28;20500;-48
2022/03/12 03:49:07;;;;;;;6.82;6.22;;;9.20;90.00;;;;;;5070000;28;20467;-49
2022/03/12 03:51:41;;;;;;;4.60;4.20;;;9.30;90.00;;;;;;5058663;28;20229;-47
2022/03/12 03:54:11;;;;;;;7.20;6.20;;;9.30;90.90;;;;;;5064084;28;20213;-47
2022/03/12 03:56:39;;;;;;;5.97;5.38;;;9.20;90.50;;;;;;5069920;28;20461;-47
2022/03/12 03:59:07;;;;;;;7.97;5.70;;;9.20;90.70;;;;;;5067543;28;20191;-47
2022/03/12 04:01:40;;;;;;;6.07;5.40;;;9.20;90.30;;;;;;5068335;28;20252;-48
2022/03/12 04:04:12;;;;;;;6.78;6.07;;;9.20;90.30;;;;;;5069674;28;20469;-49
2022/03/12 04:06:40;;;;;;;6.77;6.17;;;9.30;90.70;;;;;;5066888;28;20756;-49
2022/03/12 04:09:09;;;;;;;6.57;4.93;;;9.20;90.60;;;;;;5069376;28;20441;-48
2022/03/12 04:11:38;;;;;;;4.93;4.43;;;9.20;90.70;;;;;;5069862;28;20224;-46
2022/03/12 04:14:06;;;;;;;8.47;7.17;;;9.20;91.10;;;;;;5069076;28;20535;-47
2022/03/12 04:16:36;;;;;;;6.37;5.77;;;9.20;90.80;;;;;;5060391;28;20502;-47
2022/03/12 04:19:05;;;;;;;9.00;6.30;;;9.20;91.10;;;;;;5069647;28;20438;-47
2022/03/12 04:21:34;;;;;;;6.37;5.73;;;9.20;91.30;;;;;;5060330;28;20480;-48
2022/03/12 04:24:02;;;;;;;7.83;6.27;;;9.20;91.50;;;;;;5054456;28;20479;-47
2022/03/12 04:26:34;;;;;;;8.10;5.90;;;9.20;91.50;;;;;;5068500;28;20496;-48
2022/03/12 04:29:03;;;;;;;7.60;5.83;;;9.20;91.70;;;;;;5070148;28;20432;-48
2022/03/12 04:31:31;;;;;;;7.40;6.43;;;9.20;91.80;;;;;;5062153;28;20477;-49
2022/03/12 04:34:01;;;;;;;5.80;5.20;;;9.20;92.00;;;;;;5069311;28;20495;-47
2022/03/12 04:36:30;;;;;;;7.60;5.43;;;9.20;92.10;;;;;;5060497;28;20776;-50
2022/03/12 04:38:58;;;;;;;6.07;5.47;;;9.20;92.20;;;;;;5069367;28;20984;-47
2022/03/12 04:41:35;;;;;;;5.68;5.00;;;9.20;92.30;;;;;;5069036;28;20525;-48
2022/03/12 04:44:06;;;;;;;5.78;5.13;;;9.20;92.50;;;;;;5064449;28;20235;-47
2022/03/12 04:46:34;;;;;;;6.27;5.20;;;9.20;92.60;;;;;;5051206;28;20238;-46
2022/03/12 04:49:04;;;;;;;6.60;5.47;;;9.20;92.90;;;;;;5069657;28;20488;-49
2022/03/12 04:51:33;;;;;;;6.68;5.80;;;9.20;92.90;;;;;;5067857;28;20223;-48
2022/03/12 04:54:02;;;;;;;5.95;5.35;;;9.20;93.10;;;;;;5067990;28;20406;-48
2022/03/12 04:56:30;;;;;;;7.13;5.72;;;9.20;93.20;;;;;;5069363;28;20226;-48
2022/03/12 04:58:58;;;;;;;5.28;4.53;;;9.20;93.40;;;;;;5069960;28;20191;-47
2022/03/12 05:01:27;;;;;;;6.53;5.30;;;9.20;93.80;;;;;;5055227;28;20638;-47
2022/03/12 05:03:55;;;;;;;6.20;5.60;;;9.20;93.40;;;;;;5049674;28;20692;-49
2022/03/12 05:06:26;;;;;;;5.25;4.75;;;9.20;93.40;;;;;;5048975;28;20477;-49
2022/03/12 05:08:56;;;;;;;6.00;4.87;;;9.20;93.50;;;;;;5053431;28;20191;-47
2022/03/12 05:11:24;;;;;;;6.03;5.43;;;9.20;93.50;;;;;;5052763;28;20460;-50
2022/03/12 05:13:53;;;;;;;6.40;5.40;;;9.20;93.60;;;;;;5053219;28;20469;-51
2022/03/12 05:16:22;;;;;;;4.70;4.30;;;9.20;93.60;;;;;;5051871;28;20558;-47
2022/03/12 05:18:50;;;;;;;5.85;4.88;;;9.20;93.70;;;;;;5053496;28;20422;-49
2022/03/12 05:21:21;;;;;;;5.70;5.10;;;9.20;93.70;;;;;;5067250;28;20273;-48
2022/03/12 05:23:51;;;;;;;4.65;4.25;;;9.20;93.70;;;;;;5071914;28;20958;-48
2022/03/12 05:26:19;;;;;;;6.23;5.47;;;9.20;93.70;;;;;;5071539;28;20619;-47
2022/03/12 05:28:47;;;;;;;7.37;5.67;;;9.20;93.80;;;;;;5070315;28;20482;-48
2022/03/12 05:31:17;;;;;;;5.45;4.38;;;9.20;93.80;;;;;;5060543;28;20478;-46
2022/03/12 05:33:46;;;;;;;5.72;5.22;;;9.20;93.80;;;;;;5070194;28;20210;-48
2022/03/12 05:36:14;;;;;;;5.57;4.30;;;9.10;93.90;;;;;;5056052;28;20228;-47
2022/03/12 05:38:44;;;;;;;6.40;4.90;;;9.10;93.90;;;;;;5052507;28;20658;-47
2022/03/12 05:41:13;;;;;;;5.20;4.80;;;9.20;94.10;;;;;;5057302;28;20471;-47
2022/03/12 05:43:44;;;;;;;6.72;5.40;;;9.20;94.10;;;;;;5072330;28;20514;-48
2022/03/12 05:46:14;;;;;;;6.20;5.60;;;9.10;94.20;;;;;;5043322;28;20310;-47
2022/03/12 05:48:45;;;;;;;4.30;3.87;;;9.20;94.30;;;;;;5052604;28;20698;-49
2022/03/12 05:51:14;;;;;;;4.50;4.13;;;9.10;94.40;;;;;;5057702;28;20479;-48
2022/03/12 05:53:44;;;;;;;7.53;6.15;;;9.20;94.90;;;;;;5064293;28;20321;-47
2022/03/12 05:56:13;;;;;;;5.25;4.45;;;9.20;94.60;;;;;;5071127;28;20215;-47
2022/03/12 05:58:42;;;;;;;5.73;4.93;;;9.20;94.60;;;;;;5052763;28;20196;-50
2022/03/12 06:01:10;;;;;;;5.85;5.05;;;9.10;94.60;;;;;;5054702;28;20535;-47
2022/03/12 06:03:39;;;;;;;4.93;4.40;;;9.10;94.80;;;;;;5052540;28;20201;-47
2022/03/12 06:06:08;;;;;;;6.20;5.40;;;9.20;94.90;;;;;;5051771;28;20466;-46
2022/03/12 06:08:38;;;;;;;4.70;4.25;;;9.20;95.10;;;;;;5071918;28;20197;-50
2022/03/12 06:11:07;;;;;;;5.65;4.63;;;9.10;95.10;;;;;;5053421;28;20245;-46
2022/03/12 06:13:37;;;;;;;6.75;5.30;;;9.10;95.30;;;;;;5066342;28;20211;-47
2022/03/12 06:16:06;;;;;;;7.30;6.28;;;9.10;95.60;;;;;;5061830;28;20309;-48
2022/03/12 06:18:36;;;;;;;7.15;5.28;;;9.10;95.80;;;;;;5051922;28;20197;-47
2022/03/12 06:21:06;;;;;;;7.35;5.10;;;9.10;96.00;;;;;;5064662;28;20218;-47
2022/03/12 06:23:35;;;;;;;4.60;3.83;;;9.10;96.00;;;;;;5051959;28;20243;-47
2022/03/12 06:26:03;;;;;;;6.60;5.15;;;9.10;96.20;;;;;;5051332;28;20707;-47
2022/03/12 06:28:36;;;;;;;6.47;5.35;;;9.10;96.20;;;;;;5065119;28;20261;-50
2022/03/12 06:31:06;;;;;;;6.50;5.47;;;9.10;96.20;;;;;;5069666;28;20218;-48
2022/03/12 06:33:34;;;;;;;6.43;5.30;;;9.10;96.10;;;;;;5069602;28;20184;-48
2022/03/12 06:36:02;;;;;;;6.75;5.18;;;9.10;96.30;;;;;;5064695;28;20224;-49
2022/03/12 06:38:32;;;;;;;5.78;5.13;;;9.10;96.10;;;;;;5065624;28;20275;-46
2022/03/12 06:41:00;;;;;;;5.63;4.28;;;9.10;96.10;;;;;;5071217;28;20252;-49
2022/03/12 06:43:31;;;;;;;5.70;5.10;;;9.10;96.10;;;;;;5067305;28;20216;-49
2022/03/12 06:46:01;;;;;;;5.20;4.70;;;9.10;96.10;;;;;;5055803;28;20219;-47
2022/03/12 06:48:32;;;;;;;5.63;4.70;;;9.10;96.20;;;;;;5070035;28;20180;-49
2022/03/12 06:51:01;;;;;;;5.20;4.70;;;9.10;96.40;;;;;;5065322;28;20471;-48
2022/03/12 06:53:30;;;;;;;6.33;5.73;;;9.10;96.30;;;;;;5051205;28;20454;-48
2022/03/12 06:55:59;;;;;;;6.07;5.20;;;9.10;96.10;;;;;;5050432;28;20473;-47
2022/03/12 06:58:28;;;;;;;5.47;5.00;;;9.10;96.10;;;;;;5063196;28;20217;-47
2022/03/12 07:00:57;;;;;;;5.15;4.65;;;9.10;96.10;;;;;;5069634;28;20490;-48
2022/03/12 07:03:25;;;;;;;5.85;4.70;;;9.10;96.20;;;;;;5070715;28;20216;-47
2022/03/12 07:05:54;;;;;;;7.25;5.50;;;9.10;96.10;;;;;;5065565;28;20239;-45
2022/03/12 07:08:23;;;;;;;5.23;4.43;;;9.10;96.20;;;;;;5057995;28;20192;-49
2022/03/12 07:10:52;;;;;;;6.22;4.35;;;9.10;96.20;;;;;;5071868;28;20504;-47
2022/03/12 07:13:21;;;;;;;5.20;4.70;;;9.10;96.20;;;;;;5070205;28;20239;-47
2022/03/12 07:15:49;;;;;;;4.85;4.45;;;9.10;96.00;;;;;;5059147;28;20216;-51
2022/03/12 07:18:18;;;;;;;4.47;4.07;;;9.10;96.10;;;;;;5056114;28;20690;-48
2022/03/12 07:20:47;;;;;;;5.65;4.97;;;9.20;95.80;;;;;;5066561;28;20489;-47
2022/03/12 07:23:16;;;;;;;4.65;3.95;;;9.20;96.10;;;;;;5054837;28;20222;-49
2022/03/12 07:25:45;;;;;;;4.80;3.80;;;9.20;95.90;;;;;;5069580;28;20757;-48
2022/03/12 07:28:17;;;;;;;6.90;4.95;;;9.10;96.20;;;;;;5070182;28;20460;-48
2022/03/12 07:30:45;;;;;;;4.83;4.30;;;9.10;96.30;;;;;;5049320;28;20752;-47
2022/03/12 07:33:13;;;;;;;4.23;3.83;;;9.20;96.40;;;;;;5061776;28;20450;-47
2022/03/12 07:35:41;;;;;;;4.75;4.18;;;9.20;96.20;;;;;;5064708;28;20537;-50
2022/03/12 07:38:10;;;;;;;4.30;3.90;;;9.20;96.30;;;;;;5050347;28;20625;-49
2022/03/12 07:40:40;;;;;;;6.22;4.35;;;9.20;96.30;;;;;;5061645;28;20235;-48
2022/03/12 07:43:08;;;;;;;4.78;4.25;;;9.20;96.10;;;;;;5054413;28;20211;-46
2022/03/12 07:45:36;;;;;;;4.00;3.70;;;9.20;96.10;;;;;;5048999;28;20272;-47
2022/03/12 07:48:05;;;;;;;5.47;4.07;;;9.20;96.10;;;;;;5050748;28;20468;-47
2022/03/12 07:50:53;;;;;;;6.30;4.40;;;9.20;96.20;;;;;;5049083;28;20585;-46
2022/03/12 07:53:22;;;;;;;4.57;4.13;;;9.20;96.10;;;;;;5032553;28;20220;-48
2022/03/12 07:55:51;;;;;;;4.38;3.67;;;9.20;96.10;;;;;;5061349;28;20972;-50
2022/03/12 07:58:20;;;;;;;5.70;4.55;;;9.20;96.30;;;;;;5068768;28;20207;-49
2022/03/12 08:00:49;;;;;;;4.82;4.13;;;9.20;96.20;;;;;;5064214;28;20216;-48
2022/03/12 08:03:18;;;;;;;3.73;3.13;;;9.20;96.00;;;;;;5068627;28;20204;-47
2022/03/12 08:05:46;;;;;;;5.43;4.00;;;9.20;95.90;;;;;;5063307;28;20536;-47
2022/03/12 08:08:14;;;;;;;7.00;4.87;;;9.20;95.90;;;;;;5069229;28;20438;-48
2022/03/12 08:13:31;;;;;;;5.80;4.00;;;9.30;96.20;;;;;;5067377;28;20442;-48
2022/03/12 08:15:59;;;;;;;4.38;3.67;;;9.20;96.00;;;;;;5049473;28;20553;-47
2022/03/12 08:18:27;;;;;;;4.87;4.40;;;9.20;95.90;;;;;;5060016;28;20237;-48
2022/03/12 08:20:56;;;;;;;5.03;3.58;;;9.20;96.40;;;;;;5064806;28;20478;-47
2022/03/12 08:23:24;;;;;;;4.27;3.67;;;9.30;96.20;;;;;;5068266;28;20543;-48
2022/03/12 08:25:53;;;;;;;5.30;4.38;;;9.30;96.10;;;;;;5067417;28;21078;-49
2022/03/12 08:28:21;;;;;;;4.80;4.30;;;9.40;95.90;;;;;;5066150;28;20191;-47
2022/03/12 08:30:50;;;;;;;5.70;3.87;;;9.30;95.90;;;;;;5052992;28;20569;-49
2022/03/12 08:33:20;;;;;;;4.40;3.97;;;9.30;95.90;;;;;;5065995;28;20823;-48
2022/03/12 08:35:49;;;;;;;5.93;4.15;;;9.30;96.00;;;;;;5066811;28;20223;-47
2022/03/12 08:38:19;;;;;;;4.87;3.77;;;9.30;96.00;;;;;;5052209;28;20195;-47
2022/03/12 08:40:49;;;;;;;5.03;4.40;;;9.30;96.00;;;;;;5054210;28;20549;-49
2022/03/12 08:43:17;;;;;;;4.28;3.88;;;9.30;96.00;;;;;;5073356;28;20449;-49
2022/03/12 08:45:46;;;;;;;4.53;3.90;;;9.30;96.00;;;;;;5055514;28;20487;-46
2022/03/12 08:48:16;;;;;;;4.97;4.03;;;9.40;96.10;;;;;;5065622;28;20817;-48
2022/03/12 08:50:46;;;;;;;3.60;3.30;;;9.30;96.00;;;;;;5069826;28;20534;-47
2022/03/12 08:53:16;;;;;;;5.33;4.10;;;9.30;96.00;;;;;;5058081;28;20472;-45
2022/03/12 08:55:44;;;;;;;5.10;4.60;;;9.40;96.00;;;;;;5071383;28;20500;-47
2022/03/12 08:58:13;;;;;;;5.13;4.00;;;9.30;96.00;;;;;;5071208;28;20507;-50
2022/03/12 09:00:43;;;;;;;4.35;3.90;;;9.30;96.10;;;;;;5052694;28;20482;-49
2022/03/12 09:03:11;;;;;;;4.47;4.07;;;9.30;96.10;;;;;;5062161;28;20291;-49
2022/03/12 09:05:43;;;;;;;6.27;4.07;;;9.30;96.10;;;;;;5068809;28;20474;-48
2022/03/12 09:08:12;;;;;;;5.57;3.78;;;9.40;96.10;;;;;;5068441;28;20491;-45
2022/03/12 09:10:40;;;;;;;4.23;3.30;;;9.40;96.10;;;;;;5070062;28;20642;-47
2022/03/12 09:13:11;;;;;;;4.13;3.73;;;9.40;96.10;;;;;;5071628;28;20454;-49
2022/03/12 09:15:40;;;;;;;3.70;2.87;;;9.40;96.10;;;;;;5052398;28;20459;-48
2022/03/12 09:18:10;;;;;;;4.00;3.60;;;9.40;96.20;;;;;;5054950;28;20433;-46
2022/03/12 09:20:43;;;;;;;3.47;3.17;;;9.40;96.20;;;;;;5051579;28;20450;-46
2022/03/12 09:23:13;;;;;;;4.30;3.73;;;9.40;96.20;;;;;;5071813;28;20462;-48
2022/03/12 09:25:42;;;;;;;3.20;2.90;;;9.40;96.10;;;;;;5072210;28;20531;-49
2022/03/12 09:28:11;;;;;;;3.50;3.20;;;9.40;96.20;;;;;;5072241;28;20444;-48
2022/03/12 09:30:39;;;;;;;3.83;3.10;;;9.40;96.10;;;;;;5060342;28;20459;-49
2022/03/12 09:33:08;;;;;;;4.70;3.70;;;9.40;96.10;;;;;;5072606;28;20546;-47
2022/03/12 09:35:37;;;;;;;3.80;3.40;;;9.40;96.10;;;;;;5068700;28;20937;-49
2022/03/12 09:38:05;;;;;;;3.83;3.43;;;9.40;96.10;;;;;;5073046;28;20413;-47
2022/03/12 09:40:35;;;;;;;4.20;3.80;;;9.40;96.10;;;;;;5070416;28;21063;-48
2022/03/12 09:43:09;;;;;;;5.43;3.33;;;9.40;96.10;;;;;;5072402;28;20502;-49
2022/03/12 09:45:38;;;;;;;4.03;3.40;;;9.40;96.10;;;;;;5069268;28;20508;-48
2022/03/12 09:48:06;;;;;;;4.35;3.95;;;9.40;96.10;;;;;;5071918;28;20549;-49
2022/03/12 09:50:35;;;;;;;6.47;3.17;;;9.40;96.60;;;;;;5054678;28;20224;-47
2022/03/12 09:53:04;;;;;;;3.17;2.73;;;9.50;96.10;;;;;;5057158;28;20465;-47
2022/03/12 09:55:34;;;;;;;4.00;3.47;;;9.40;96.10;;;;;;5072045;28;20827;-48
2022/03/12 09:58:03;;;;;;;3.67;3.13;;;9.40;96.10;;;;;;5071993;28;20480;-47
2022/03/12 10:00:31;;;;;;;3.40;3.10;;;9.50;96.10;;;;;;5035088;28;20562;-47
2022/03/12 10:03:00;;;;;;;4.00;3.13;;;9.50;96.20;;;;;;5072401;28;20442;-47
2022/03/12 10:05:28;;;;;;;4.90;3.20;;;9.50;96.20;;;;;;5069826;28;20992;-47
2022/03/12 10:07:57;;;;;;;4.13;2.50;;;9.50;96.20;;;;;;5063591;28;20626;-48
2022/03/12 10:10:25;;;;;;;3.00;2.70;;;9.50;96.20;;;;;;5071020;28;21000;-49
2022/03/12 10:12:53;;;;;;;3.30;2.83;;;9.40;96.20;;;;;;5070629;28;20457;-47
2022/03/12 10:15:23;;;;;;;3.27;2.97;;;9.50;96.20;;;;;;5061929;28;20532;-49
2022/03/12 10:17:51;;;;;;;3.00;2.80;;;9.50;96.20;;;;;;5061705;28;20651;-49
2022/03/12 10:20:25;;;;;;;4.73;2.97;;;9.50;96.20;;;;;;5071526;28;20486;-48
2022/03/12 10:22:54;;;;;;;3.67;2.80;;;9.50;96.20;;;;;;5069490;28;20807;-48
2022/03/12 10:25:22;;;;;;;3.53;2.77;;;9.50;96.20;;;;;;5069250;28;20453;-48
2022/03/12 10:27:51;;;;;;;4.87;3.00;;;9.50;96.20;;;;;;5067459;28;20532;-47
2022/03/12 10:30:19;;;;;;;7.33;3.70;;;9.50;97.30;;;;;;5069772;28;20465;-47
2022/03/12 10:32:50;;;;;;;6.57;2.90;;;9.60;97.90;;;;;;5071133;28;20653;-46
2022/03/12 10:35:20;;;;;;;7.40;3.43;;;9.70;97.80;;;;;;5057962;28;20495;-49
2022/03/12 10:37:51;;;;;;;6.67;3.23;;;9.80;97.60;;;;;;5068073;28;20863;-45
2022/03/12 10:40:21;;;;;;;4.80;3.83;;;9.90;97.30;;;;;;5065175;28;20478;-46
2022/03/12 10:42:51;;;;;;;3.97;3.03;;;10.00;96.90;;;;;;5069598;28;20442;-47
2022/03/12 10:45:21;;;;;;;5.70;3.63;;;10.00;96.80;;;;;;5070268;28;20481;-48
2022/03/12 10:47:53;;;;;;;6.87;3.70;;;10.00;96.60;;;;;;5069186;28;20490;-46
2022/03/12 10:50:25;;;;;;;8.70;3.73;;;10.00;96.60;;;;;;5058742;28;20486;-45
2022/03/12 10:52:55;;;;;;;4.00;3.20;;;10.00;96.50;;;;;;5058466;28;20993;-47
2022/03/12 10:55:27;;;;;;;4.70;3.30;;;10.00;96.50;;;;;;5066022;28;20470;-47
2022/03/12 10:58:00;;;;;;;4.47;2.90;;;10.00;96.70;;;;;;5069630;28;21021;-47
2022/03/12 11:00:30;;;;;;;4.70;3.03;;;10.10;96.60;;;;;;5066421;28;20497;-49
2022/03/12 11:03:01;;;;;;;3.53;2.40;;;10.10;96.70;;;;;;5068809;28;20480;-47
2022/03/12 11:05:34;;;;;;;5.00;2.77;;;10.00;96.70;;;;;;5066836;28;20957;-47
2022/03/12 11:08:08;;;;;;;4.50;3.10;;;10.10;96.80;;;;;;5064067;28;20466;-47
2022/03/12 11:10:39;;;;;;;4.87;3.63;;;10.10;96.80;;;;;;5067500;28;20569;-46
2022/03/12 11:13:08;;;;;;;3.30;2.57;;;10.10;96.90;;;;;;5069447;28;20541;-46
2022/03/12 11:15:40;;;;;;;3.93;2.63;;;10.10;96.80;;;;;;5065603;28;20629;-47
2022/03/12 11:18:10;;;;;;;4.67;3.30;;;10.10;96.70;;;;;;5069631;28;20488;-48
2022/03/12 11:20:38;;;;;;;3.33;2.50;;;10.20;96.70;;;;;;5067914;28;20670;-47
2022/03/12 11:23:08;;;;;;;4.23;3.70;;;10.20;96.60;;;;;;5063926;28;20478;-48
2022/03/12 11:25:51;;;;;;;5.80;3.10;;;10.20;96.60;;;;;;5065062;28;20462;-47
2022/03/12 11:28:20;;;;;;;2.80;2.23;;;10.20;96.40;;;;;;5062298;28;20553;-49
2022/03/12 11:30:49;;;;;;;4.07;2.27;;;10.20;96.30;;;;;;5068920;28;20465;-47
2022/03/12 11:33:21;;;;;;;6.47;2.50;;;10.10;96.30;;;;;;5068924;28;20468;-49
2022/03/12 11:35:49;;;;;;;3.57;2.60;;;10.10;96.40;;;;;;5066577;28;20674;-46
2022/03/12 11:38:19;;;;;;;4.00;2.87;;;10.00;96.50;;;;;;5067438;28;20905;-49
2022/03/12 11:40:50;;;;;;;4.60;3.50;;;10.00;96.60;;;;;;5067038;28;20462;-46
2022/03/12 11:43:24;;;;;;;3.40;2.27;;;10.00;96.60;;;;;;5069987;28;20457;-48
2022/03/12 11:46:12;;;;;;;4.00;2.23;;;9.90;97.00;;;;;;5065304;28;20553;-47
2022/03/12 11:48:42;;;;;;;2.80;2.40;;;9.90;97.10;;;;;;5070667;28;20893;-49
2022/03/12 11:51:19;;;;;;;5.60;2.50;;;9.90;97.20;;;;;;5064451;28;20806;-50
2022/03/12 11:53:48;;;;;;;2.70;2.37;;;9.90;97.20;;;;;;5066617;28;20434;-49
2022/03/12 11:56:18;;;;;;;6.40;3.07;;;9.90;97.20;;;;;;5066267;28;20462;-47
2022/03/12 11:58:47;;;;;;;3.43;2.67;;;9.90;97.20;;;;;;5068531;28;20426;-49
2022/03/12 12:01:20;;;;;;;3.90;2.57;;;9.90;97.20;;;;;;5060183;28;20556;-48
2022/03/12 12:03:53;;;;;;;2.73;2.17;;;9.90;97.20;;;;;;5068902;28;20797;-48
2022/03/12 12:06:22;;;;;;;2.33;2.13;;;9.90;97.20;;;;;;5048110;28;20996;-47
2022/03/12 12:08:51;;;;;;;5.97;2.80;;;9.80;97.20;;;;;;5068670;28;20819;-48
2022/03/12 12:11:19;;;;;;;4.50;2.47;;;9.90;97.30;;;;;;5065771;28;20501;-48
2022/03/12 12:13:47;;;;;;;4.30;2.47;;;9.90;97.30;;;;;;5064949;28;20848;-47
2022/03/12 12:16:18;;;;;;;7.13;2.40;;;9.90;97.40;;;;;;5062878;28;20999;-47
2022/03/12 12:18:46;;;;;;;2.70;2.30;;;9.90;97.30;;;;;;5070881;28;20441;-47
2022/03/12 12:21:17;;;;;;;3.43;2.40;;;9.90;97.20;;;;;;5068553;28;21023;-48
2022/03/12 12:23:47;;;;;;;4.13;2.57;;;9.90;97.20;;;;;;5073411;28;20755;-48
2022/03/12 12:26:15;;;;;;;4.33;2.33;;;9.90;97.30;;;;;;5072698;28;20466;-48
2022/03/12 12:28:48;;;;;;;4.83;2.70;;;9.90;97.30;;;;;;5073603;28;20469;-47
2022/03/12 12:31:23;;;;;;;4.20;2.20;;;9.80;97.30;;;;;;5061848;28;20880;-49
2022/03/12 12:33:52;;;;;;;3.10;2.40;;;9.90;97.30;;;;;;5068955;28;20441;-48
2022/03/12 12:36:22;;;;;;;2.77;2.30;;;9.80;97.40;;;;;;5061156;28;20479;-46
2022/03/12 12:39:09;;;;;;;2.90;2.13;;;9.90;97.40;;;;;;5068684;28;20430;-47
2022/03/12 12:41:54;;;;;;;3.27;2.30;;;9.90;97.30;;;;;;5072071;28;20466;-49
2022/03/12 12:44:39;;;;;;;2.43;1.83;;;9.90;97.30;;;;;;5071270;28;20850;-46
2022/03/12 12:47:17;;;;;;;4.70;2.60;;;9.90;97.20;;;;;;5073626;28;20533;-48
2022/03/12 12:49:52;;;;;;;2.97;2.07;;;9.90;97.20;;;;;;5073055;28;20472;-48
2022/03/12 12:52:22;;;;;;;3.40;2.70;;;9.90;97.20;;;;;;5071063;28;20461;-47
2022/03/12 12:54:58;;;;;;;3.73;2.30;;;9.90;97.30;;;;;;5072310;28;20507;-46
2022/03/12 12:57:40;;;;;;;3.83;2.47;;;9.90;97.20;;;;;;5074024;28;20447;-49
2022/03/12 13:00:33;;;;;;;3.50;2.33;;;9.90;97.30;;;;;;5046282;28;20869;-48
2022/03/12 13:03:11;;;;;;;2.33;2.13;;;9.90;97.20;;;;;;5048796;28;20560;-47
2022/03/12 13:05:52;;;;;;;3.20;2.07;;;9.90;97.30;;;;;;5070180;28;20495;-47
2022/03/12 13:08:42;;;;;;;3.90;2.40;;;9.90;97.30;;;;;;5043572;28;20844;-46
2022/03/12 13:11:27;;;;;;;3.77;2.03;;;9.90;97.30;;;;;;5072786;28;21038;-49
2022/03/12 13:13:58;;;;;;;3.10;2.70;;;9.90;97.30;;;;;;5072765;28;20502;-48